バンコク/スワンナプーム の空港の天気 - METARとTAF

スワンナプーム国際空港 ( VTBS / BKK ) - タイ サムットプラーカーン県 (バンコク近郊)
飛行場実況気象(Metar)
観測時間12/01 00:30 ICT (11/30 17:30 UTC)
風向・風速北 1m/s
視程10km以上
天気現象
少しの雲 雲底高度 610m
気温27℃
湿度79%
気圧1010hPa
METARVTBS 301730Z 35002KT 9999 FEW020 27/23 Q1010 NOSIG
過去の天気等 Google飛行場航空写真 Wunderground天気予報

過去48時間のMETAR

飛行場予報(TAF)
発表時間: 12/01 00:00 ICT (11/30 17:00 UTC)
予報対象時間: 1日1時 ICT ~ 2日7時 ICT
風向・風速北 3m/s
視程9000m
少しの雲 雲底高度 610m
1日4時 ICT ~ 1日6時 ICT に徐々に
視程4000m
天気現象もや
1日8時 ICT ~ 1日10時 ICT に徐々に
風向・風速北東 4m/s
視程9000m
天気現象運行に影響にある天気現象が終了
TAF VTBS 301700Z 3018/0124 35005KT 9000 FEW020
BECMG 3021/3023 4000 BR
BECMG 0101/0103 05008KT 9000 NSW